Norwegian Crown — C6II4 — position and weather

sailwx.info

Track history (hours):
 
Tides and Currents Weather Stations Pressure Air Temp Water Temp Dewpoint Dewpoint Depression Visibility Wind Speed Wind Dir Waves Ship Positions

Norwegian Crown

Operator: Norwegian Cruise Line

Last reported at 2015-Jul-28 02:08 UTC. Time now 2015-Jul-28 03:31 UTC.
Position N 59°55' E 004°53'.

Type: Passenger vessel. MMSI: 308785000.

Date/timePositionNaut miles runAvg speedWind from/ knotsBaromVisibWave heightAir tempDewpointWater temp
2015-Jul-28 02:08N 59°55' E 004°53'6 9.7
2015-Jul-28 01:30N 59°49' E 004°51'9 9.7
2015-Jul-28 00:33N 59°40' E 004°49'10 9.6
2015-Jul-27 23:33N 59°30' E 004°47'9 9.1
2015-Jul-27 22:32N 59°21' E 004°47'9 8.8
2015-Jul-27 21:33N 59°13' E 004°51'9 9.0
2015-Jul-27 20:34N 59°07' E 005°03'10 9.7
2015-Jul-27 19:33N 59°06' E 005°22'1010.2
2015-Jul-27 18:34N 59°01' E 005°39'3 3.4
2015-Jul-27 17:34N 58°59' E 005°43'0 0.0
2015-Jul-27 16:33N 58°59' E 005°43'0 0.0
2015-Jul-27 15:33N 58°59' E 005°43'0 0.0
2015-Jul-27 14:34N 58°59' E 005°43'0 0.0
2015-Jul-27 13:34N 58°59' E 005°43'0 0.0
2015-Jul-27 12:33N 58°59' E 005°43'0 0.0
2015-Jul-27 11:33N 58°59' E 005°43'0 0.0
2015-Jul-27 10:34N 58°59' E 005°43'0 0.1
2015-Jul-27 09:33N 58°59' E 005°43'5 5.4
2015-Jul-27 08:33N 58°59' E 005°33'1212.4
2015-Jul-27 07:33N 58°47' E 005°23'1111.4
2015-Jul-27 06:33N 58°36' E 005°18'42216.8
2015-Jul-26 05:21N 51°45' E 002°32'1416.2
2015-Jul-26 04:31N 51°35' E 002°18'1515.8
2015-Jul-26 03:33N 51°23' E 002°03'1615.6
2015-Jul-26 02:34N 51°11' E 001°46'1515.4
2015-Jul-26 01:33N 50°59' E 001°31'1515.1
2015-Jul-26 00:33N 50°45' E 001°22'1715.6
2015-Jul-25 23:30N 50°34' E 001°03'1314.0
2015-Jul-25 22:33N 50°29' E 000°44'1313.4
2015-Jul-25 21:33N 50°25' E 000°23'3414.9
2015-Jul-25 19:18N 50°28' W 000°29'1215.9
2015-Jul-25 18:33N 50°34' W 000°45'1414.1
2015-Jul-25 17:33N 50°44' W 001°02'1211.9
2015-Jul-25 16:33N 50°50' W 001°18'5 4.3
2015-Jul-25 15:24N 50°53' W 001°24'0 0.0
2015-Jul-25 14:21N 50°53' W 001°24'0 0.0
2015-Jul-25 13:33N 50°53' W 001°24'0 0.0
2015-Jul-25 12:33N 50°53' W 001°24'0 0.0
2015-Jul-25 11:33N 50°53' W 001°24'0 0.0
2015-Jul-25 10:21N 50°53' W 001°24'0 0.0
2015-Jul-25 09:27N 50°53' W 001°24'0 0.0
2015-Jul-25 08:33N 50°53' W 001°24'0 0.0
2015-Jul-25 04:27N 50°53' W 001°24'1 1.6
2015-Jul-25 03:33N 50°52' W 001°22'9 9.2
2015-Jul-25 02:34N 50°46' W 001°12'1313.0
2015-Jul-25 01:33N 50°39' W 000°54'1212.2
2015-Jul-25 00:33N 50°34' W 000°36'1110.6
2015-Jul-24 23:32N 50°33' W 000°20'1211.7
2015-Jul-24 22:33N 50°32' W 000°02'1212.4
2015-Jul-24 21:33N 50°34' E 000°18'1312.9
2015-Jul-24 20:33N 50°38' E 000°37'1312.5
2015-Jul-24 19:33N 50°45' E 000°54'1211.8
2015-Jul-24 18:33N 50°53' E 001°08'1110.6
2015-Jul-24 17:33N 51°00' E 001°20'1010.5
2015-Jul-24 16:33N 51°07' E 001°33'1111.2
2015-Jul-24 15:33N 51°14' E 001°46'1212.5
2015-Jul-24 14:33N 51°26' E 001°55'1313.2
2015-Jul-24 13:33N 51°37' E 002°05'1413.6
2015-Jul-24 12:32N 51°49' E 002°16'2517.2
2015-Jul-24 11:07N 52°10' E 002°37'916.3
2015-Jul-24 10:33N 52°18' E 002°44'1615.9
2015-Jul-24 09:33N 52°32' E 002°56'1615.6
2015-Jul-24 08:32N 52°46' E 003°08'1515.5
2015-Jul-24 07:33N 53°00' E 003°18'6515.8
2015-Jul-24 03:28N 53°57' E 004°11'1516.5
2015-Jul-24 02:33N 54°07' E 004°29'29515.4
2015-Jul-23 07:25N 57°48' E 010°17'1214.3
2015-Jul-23 06:33N 57°48' E 010°40'1514.9
2015-Jul-23 05:33N 57°40' E 011°03'1615.8
2015-Jul-23 04:33N 57°29' E 011°24'1616.3
2015-Jul-23 03:33N 57°14' E 011°36'1716.5
2015-Jul-23 02:33N 56°58' E 011°46'1515.3
2015-Jul-23 01:33N 56°44' E 011°59'1616.2
2015-Jul-23 00:33N 56°28' E 012°01'1515.5
2015-Jul-22 23:33N 56°14' E 012°14'1616.2
2015-Jul-22 22:34N 56°05' E 012°37'1615.8
2015-Jul-22 21:33N 55°49' E 012°44'7 7.4
2015-Jul-22 20:33N 55°43' E 012°37'0 0.0
2015-Jul-22 19:33N 55°43' E 012°37'0 0.0
2015-Jul-22 18:33N 55°43' E 012°37'0 0.0
2015-Jul-22 17:33N 55°43' E 012°37'0 0.0
2015-Jul-22 16:33N 55°43' E 012°37'0 0.0
2015-Jul-22 15:33N 55°43' E 012°37'0 0.0
2015-Jul-22 14:33N 55°43' E 012°37'0 0.0
2015-Jul-22 13:33N 55°43' E 012°37'0 0.0
2015-Jul-22 12:33N 55°43' E 012°37'0 0.0
2015-Jul-22 11:33N 55°43' E 012°37'0 0.0
2015-Jul-22 10:33N 55°43' E 012°37'0 0.2
2015-Jul-22 09:33N 55°43' E 012°38'7 6.8
2015-Jul-22 08:33N 55°36' E 012°42'9 9.3
2015-Jul-22 07:33N 55°27' E 012°42'1010.0
2015-Jul-22 06:34N 55°17' E 012°45'1515.3
2015-Jul-22 05:34N 55°15' E 013°11'1716.5
2015-Jul-22 04:32N 55°14' E 013°41'1716.2
2015-Jul-22 03:31N 55°13' E 014°10'1515.5
2015-Jul-22 02:34N 55°23' E 014°30'1616.1
2015-Jul-22 01:34N 55°32' E 014°53'1716.5
2015-Jul-22 00:34N 55°40' E 015°18'2216.6
2015-Jul-21 23:15N 55°51' E 015°52'8115.7
2015-Jul-21 18:06N 56°56' E 017°21'916.3
2015-Jul-21 17:33N 57°04' E 017°26'1616.0
2015-Jul-21 16:34N 57°19' E 017°34'33 2.8
2015-Jul-21 04:34N 57°45' E 018°15'96 7.9
2015-Jul-20 16:28N 59°20' E 018°12'2 1.8
2015-Jul-20 15:11N 59°21' E 018°08'0 0.0
2015-Jul-20 14:11N 59°21' E 018°08'0 0.0
2015-Jul-20 12:20N 59°21' E 018°08'0 0.0
2015-Jul-20 11:08N 59°21' E 018°08'0 0.0
2015-Jul-20 10:17N 59°21' E 018°08'0 0.0
2015-Jul-20 08:29N 59°21' E 018°08'0 0.0
2015-Jul-20 07:11N 59°21' E 018°08'0 0.0
2015-Jul-20 06:26N 59°21' E 018°08'0 0.0
2015-Jul-20 05:32N 59°21' E 018°08'0 0.0
2015-Jul-20 04:11N 59°21' E 018°08'0 0.0
2015-Jul-20 03:32N 59°21' E 018°08'0 0.0
2015-Jul-20 02:26N 59°21' E 018°08'0 0.0
2015-Jul-20 01:32N 59°21' E 018°08'0 0.0
2015-Jul-20 00:26N 59°21' E 018°08'0 0.0
2015-Jul-19 23:32N 59°21' E 018°08'0 0.0
2015-Jul-19 22:32N 59°21' E 018°08'0 0.0
2015-Jul-19 21:32N 59°21' E 018°08'0 0.0
2015-Jul-19 20:32N 59°21' E 018°08'0 0.0
2015-Jul-19 19:32N 59°21' E 018°08'0 0.0
2015-Jul-19 18:34N 59°21' E 018°08'11011.7
2015-Jul-19 09:12N 59°24' E 021°43'1116.2
2015-Jul-19 08:33N 59°26' E 022°03'3316.3
2015-Jul-19 06:32N 59°35' E 023°06'1717.0
2015-Jul-19 05:33N 59°40' E 023°38'2017.2
2015-Jul-19 04:23N 59°46' E 024°16'6115.1
2015-Jul-19 00:20N 59°59' E 026°15'1215.6
2015-Jul-18 23:33N 60°01' E 026°39'1615.4
2015-Jul-18 22:33N 60°02' E 027°10'7114.2
2015-Jul-18 17:32N 60°01' E 029°32'1212.0
2015-Jul-18 16:33N 59°57' E 029°54'9 8.9
2015-Jul-18 15:33N 59°57' E 030°11'0 0.0
2015-Jul-18 14:31N 59°57' E 030°12'0 0.0
2015-Jul-18 13:31N 59°57' E 030°12'0 0.0
2015-Jul-18 12:33N 59°57' E 030°12'0 0.0
2015-Jul-18 11:33N 59°57' E 030°12'0 0.0
2015-Jul-18 10:33N 59°57' E 030°12'0 0.0
2015-Jul-18 09:33N 59°57' E 030°12'0 0.0
2015-Jul-18 08:33N 59°57' E 030°12'0 0.0
2015-Jul-18 07:33N 59°57' E 030°12'0 0.0
2015-Jul-18 06:33N 59°57' E 030°12'0 0.0
2015-Jul-18 05:33N 59°57' E 030°12'0 0.0
2015-Jul-18 04:33N 59°57' E 030°12'0 0.0
2015-Jul-18 03:33N 59°57' E 030°12'0 0.0
2015-Jul-18 02:33N 59°57' E 030°12'  
Track history (hours):
 
Tides and Currents Weather Stations Pressure Air Temp Water Temp Dewpoint Dewpoint Depression Visibility Wind Speed Wind Dir Waves Ship Positions

Norwegian Crown

Operator: Norwegian Cruise Line

Last reported at 2015-Jul-28 02:08 UTC. Time now 2015-Jul-28 03:31 UTC.
Position N 59°55' E 004°53'.

Type: Passenger vessel. MMSI: 308785000.

Date/timePositionNaut miles runAvg speedWind from/ knotsBaromVisibWave heightAir tempDewpointWater temp
2015-Jul-28 02:08N 59°55' E 004°53'6 9.7
2015-Jul-28 01:30N 59°49' E 004°51'9 9.7
2015-Jul-28 00:33N 59°40' E 004°49'10 9.6
2015-Jul-27 23:33N 59°30' E 004°47'9 9.1
2015-Jul-27 22:32N 59°21' E 004°47'9 8.8
2015-Jul-27 21:33N 59°13' E 004°51'9 9.0
2015-Jul-27 20:34N 59°07' E 005°03'10 9.7
2015-Jul-27 19:33N 59°06' E 005°22'1010.2
2015-Jul-27 18:34N 59°01' E 005°39'3 3.4
2015-Jul-27 17:34N 58°59' E 005°43'0 0.0
2015-Jul-27 16:33N 58°59' E 005°43'0 0.0
2015-Jul-27 15:33N 58°59' E 005°43'0 0.0
2015-Jul-27 14:34N 58°59' E 005°43'0 0.0
2015-Jul-27 13:34N 58°59' E 005°43'0 0.0
2015-Jul-27 12:33N 58°59' E 005°43'0 0.0
2015-Jul-27 11:33N 58°59' E 005°43'0 0.0
2015-Jul-27 10:34N 58°59' E 005°43'0 0.1
2015-Jul-27 09:33N 58°59' E 005°43'5 5.4
2015-Jul-27 08:33N 58°59' E 005°33'1212.4
2015-Jul-27 07:33N 58°47' E 005°23'1111.4
2015-Jul-27 06:33N 58°36' E 005°18'42216.8
2015-Jul-26 05:21N 51°45' E 002°32'1416.2
2015-Jul-26 04:31N 51°35' E 002°18'1515.8
2015-Jul-26 03:33N 51°23' E 002°03'1615.6
2015-Jul-26 02:34N 51°11' E 001°46'1515.4
2015-Jul-26 01:33N 50°59' E 001°31'1515.1
2015-Jul-26 00:33N 50°45' E 001°22'1715.6
2015-Jul-25 23:30N 50°34' E 001°03'1314.0
2015-Jul-25 22:33N 50°29' E 000°44'1313.4
2015-Jul-25 21:33N 50°25' E 000°23'3414.9
2015-Jul-25 19:18N 50°28' W 000°29'1215.9
2015-Jul-25 18:33N 50°34' W 000°45'1414.1
2015-Jul-25 17:33N 50°44' W 001°02'1211.9
2015-Jul-25 16:33N 50°50' W 001°18'5 4.3
2015-Jul-25 15:24N 50°53' W 001°24'0 0.0
2015-Jul-25 14:21N 50°53' W 001°24'0 0.0
2015-Jul-25 13:33N 50°53' W 001°24'0 0.0
2015-Jul-25 12:33N 50°53' W 001°24'0 0.0
2015-Jul-25 11:33N 50°53' W 001°24'0 0.0
2015-Jul-25 10:21N 50°53' W 001°24'0 0.0
2015-Jul-25 09:27N 50°53' W 001°24'0 0.0
2015-Jul-25 08:33N 50°53' W 001°24'0 0.0
2015-Jul-25 04:27N 50°53' W 001°24'1 1.6
2015-Jul-25 03:33N 50°52' W 001°22'9 9.2
2015-Jul-25 02:34N 50°46' W 001°12'1313.0
2015-Jul-25 01:33N 50°39' W 000°54'1212.2
2015-Jul-25 00:33N 50°34' W 000°36'1110.6
2015-Jul-24 23:32N 50°33' W 000°20'1211.7
2015-Jul-24 22:33N 50°32' W 000°02'1212.4
2015-Jul-24 21:33N 50°34' E 000°18'1312.9
2015-Jul-24 20:33N 50°38' E 000°37'1312.5
2015-Jul-24 19:33N 50°45' E 000°54'1211.8
2015-Jul-24 18:33N 50°53' E 001°08'1110.6
2015-Jul-24 17:33N 51°00' E 001°20'1010.5
2015-Jul-24 16:33N 51°07' E 001°33'1111.2
2015-Jul-24 15:33N 51°14' E 001°46'1212.5
2015-Jul-24 14:33N 51°26' E 001°55'1313.2
2015-Jul-24 13:33N 51°37' E 002°05'1413.6
2015-Jul-24 12:32N 51°49' E 002°16'2517.2
2015-Jul-24 11:07N 52°10' E 002°37'916.3
2015-Jul-24 10:33N 52°18' E 002°44'1615.9
2015-Jul-24 09:33N 52°32' E 002°56'1615.6
2015-Jul-24 08:32N 52°46' E 003°08'1515.5
2015-Jul-24 07:33N 53°00' E 003°18'6515.8
2015-Jul-24 03:28N 53°57' E 004°11'1516.5
2015-Jul-24 02:33N 54°07' E 004°29'29515.4
2015-Jul-23 07:25N 57°48' E 010°17'1214.3
2015-Jul-23 06:33N 57°48' E 010°40'1514.9
2015-Jul-23 05:33N 57°40' E 011°03'1615.8
2015-Jul-23 04:33N 57°29' E 011°24'1616.3
2015-Jul-23 03:33N 57°14' E 011°36'1716.5
2015-Jul-23 02:33N 56°58' E 011°46'1515.3
2015-Jul-23 01:33N 56°44' E 011°59'1616.2
2015-Jul-23 00:33N 56°28' E 012°01'1515.5
2015-Jul-22 23:33N 56°14' E 012°14'1616.2
2015-Jul-22 22:34N 56°05' E 012°37'1615.8
2015-Jul-22 21:33N 55°49' E 012°44'7 7.4
2015-Jul-22 20:33N 55°43' E 012°37'0 0.0
2015-Jul-22 19:33N 55°43' E 012°37'0 0.0
2015-Jul-22 18:33N 55°43' E 012°37'0 0.0
2015-Jul-22 17:33N 55°43' E 012°37'0 0.0
2015-Jul-22 16:33N 55°43' E 012°37'0 0.0
2015-Jul-22 15:33N 55°43' E 012°37'0 0.0
2015-Jul-22 14:33N 55°43' E 012°37'0 0.0
2015-Jul-22 13:33N 55°43' E 012°37'0 0.0
2015-Jul-22 12:33N 55°43' E 012°37'0 0.0
2015-Jul-22 11:33N 55°43' E 012°37'0 0.0
2015-Jul-22 10:33N 55°43' E 012°37'0 0.2
2015-Jul-22 09:33N 55°43' E 012°38'7 6.8
2015-Jul-22 08:33N 55°36' E 012°42'9 9.3
2015-Jul-22 07:33N 55°27' E 012°42'1010.0
2015-Jul-22 06:34N 55°17' E 012°45'1515.3
2015-Jul-22 05:34N 55°15' E 013°11'1716.5
2015-Jul-22 04:32N 55°14' E 013°41'1716.2
2015-Jul-22 03:31N 55°13' E 014°10'1515.5
2015-Jul-22 02:34N 55°23' E 014°30'1616.1
2015-Jul-22 01:34N 55°32' E 014°53'1716.5
2015-Jul-22 00:34N 55°40' E 015°18'2216.6
2015-Jul-21 23:15N 55°51' E 015°52'8115.7
2015-Jul-21 18:06N 56°56' E 017°21'916.3
2015-Jul-21 17:33N 57°04' E 017°26'1616.0
2015-Jul-21 16:34N 57°19' E 017°34'33 2.8
2015-Jul-21 04:34N 57°45' E 018°15'96 7.9
2015-Jul-20 16:28N 59°20' E 018°12'2 1.8
2015-Jul-20 15:11N 59°21' E 018°08'0 0.0
2015-Jul-20 14:11N 59°21' E 018°08'0 0.0
2015-Jul-20 12:20N 59°21' E 018°08'0 0.0
2015-Jul-20 11:08N 59°21' E 018°08'0 0.0
2015-Jul-20 10:17N 59°21' E 018°08'0 0.0
2015-Jul-20 08:29N 59°21' E 018°08'0 0.0
2015-Jul-20 07:11N 59°21' E 018°08'0 0.0
2015-Jul-20 06:26N 59°21' E 018°08'0 0.0
2015-Jul-20 05:32N 59°21' E 018°08'0 0.0
2015-Jul-20 04:11N 59°21' E 018°08'0 0.0
2015-Jul-20 03:32N 59°21' E 018°08'0 0.0
2015-Jul-20 02:26N 59°21' E 018°08'0 0.0
2015-Jul-20 01:32N 59°21' E 018°08'0 0.0
2015-Jul-20 00:26N 59°21' E 018°08'0 0.0
2015-Jul-19 23:32N 59°21' E 018°08'0 0.0
2015-Jul-19 22:32N 59°21' E 018°08'0 0.0
2015-Jul-19 21:32N 59°21' E 018°08'0 0.0
2015-Jul-19 20:32N 59°21' E 018°08'0 0.0
2015-Jul-19 19:32N 59°21' E 018°08'0 0.0
2015-Jul-19 18:34N 59°21' E 018°08'11011.7
2015-Jul-19 09:12N 59°24' E 021°43'1116.2
2015-Jul-19 08:33N 59°26' E 022°03'3316.3
2015-Jul-19 06:32N 59°35' E 023°06'1717.0
2015-Jul-19 05:33N 59°40' E 023°38'2017.2
2015-Jul-19 04:23N 59°46' E 024°16'6115.1
2015-Jul-19 00:20N 59°59' E 026°15'1215.6
2015-Jul-18 23:33N 60°01' E 026°39'1615.4
2015-Jul-18 22:33N 60°02' E 027°10'7114.2
2015-Jul-18 17:32N 60°01' E 029°32'1212.0
2015-Jul-18 16:33N 59°57' E 029°54'9 8.9
2015-Jul-18 15:33N 59°57' E 030°11'0 0.0
2015-Jul-18 14:31N 59°57' E 030°12'0 0.0
2015-Jul-18 13:31N 59°57' E 030°12'0 0.0
2015-Jul-18 12:33N 59°57' E 030°12'0 0.0
2015-Jul-18 11:33N 59°57' E 030°12'0 0.0
2015-Jul-18 10:33N 59°57' E 030°12'0 0.0
2015-Jul-18 09:33N 59°57' E 030°12'0 0.0
2015-Jul-18 08:33N 59°57' E 030°12'0 0.0
2015-Jul-18 07:33N 59°57' E 030°12'0 0.0
2015-Jul-18 06:33N 59°57' E 030°12'0 0.0
2015-Jul-18 05:33N 59°57' E 030°12'0 0.0
2015-Jul-18 04:33N 59°57' E 030°12'0 0.0
2015-Jul-18 03:33N 59°57' E 030°12'0 0.0
2015-Jul-18 02:33N 59°57' E 030°12'  

Dump ship's entire track history